Time;durP1;ratioP1;P1;durP2;ratioP2;P2;SDS_P1;SDS_P2;PMS_P1;PMS_P2;Temp;Humidity;BMP_temperature;BMP_pressure;BME280_temperature;BME280_humidity;BME280_pressure;Samples;Min_cycle;Max_cycle;Signal;HPM_P1;HPM_P2
2022/11/24 00:00:32;;;;;;;;;;;8.70;99.90;;;;;;8414460;28;20287;-71
2022/11/24 00:04:33;;;;;;;;;;;8.70;99.90;;;;;;8405219;28;19932;-70
2022/11/24 00:08:36;;;;;;;;;;;8.70;99.90;;;;;;8393741;28;19954;-70
2022/11/24 00:12:37;;;;;;;;;;;8.70;99.90;;;;;;8390891;28;19935;-70
2022/11/24 00:16:39;;;;;;;;;;;8.60;99.90;;;;;;8416705;28;20063;-71
2022/11/24 00:20:41;;;;;;;;;;;8.60;99.90;;;;;;8392536;28;19925;-70
2022/11/24 00:24:42;;;;;;;;;;;8.60;99.90;;;;;;8387819;28;20280;-70
2022/11/24 00:28:45;;;;;;;;;;;8.60;99.90;;;;;;8411324;28;20291;-70
2022/11/24 00:32:47;;;;;;;;;;;8.50;99.90;;;;;;8392087;28;19925;-70
2022/11/24 00:36:48;;;;;;;;;;;8.50;99.90;;;;;;8420319;28;19931;-70
2022/11/24 00:40:51;;;;;;;;;;;8.50;99.90;;;;;;8394690;28;19932;-70
2022/11/24 00:44:52;;;;;;;;;;;8.40;99.90;;;;;;8404508;28;19924;-70
2022/11/24 00:53:58;;;;;;;;;;;8.40;99.90;;;;;;8396699;28;19939;-70
2022/11/24 00:58:00;;;;;;;;;;;8.40;99.90;;;;;;8402173;28;19924;-70
2022/11/24 01:02:02;;;;;;;;;;;8.30;99.90;;;;;;8395489;28;20553;-71
2022/11/24 01:06:11;;;;;;;;;;;8.30;99.90;;;;;;8407972;28;19936;-70
2022/11/24 01:10:13;;;;;;;;;;;8.30;99.90;;;;;;8418794;28;19925;-70
2022/11/24 01:14:14;;;;;;;;;;;8.20;99.90;;;;;;8415678;28;19966;-70
2022/11/24 01:18:16;;;;;;;;;;;8.20;99.90;;;;;;8395394;28;19924;-70
2022/11/24 01:22:18;;;;;;;;;;;8.20;99.90;;;;;;8411144;28;19924;-71
2022/11/24 01:26:21;;;;;;;;;;;8.20;99.90;;;;;;8418191;28;19939;-70
2022/11/24 01:30:22;;;;;;;;;;;8.20;99.90;;;;;;8420702;28;19928;-70
2022/11/24 01:34:24;;;;;;;;;;;8.20;99.90;;;;;;8404550;28;19923;-70
2022/11/24 01:38:26;;;;;;;;;;;8.20;99.90;;;;;;8415515;28;19925;-71
2022/11/24 01:42:35;;;;;;;;;;;8.30;99.90;;;;;;8401649;28;19935;-70
2022/11/24 01:46:40;;;;;;;;;;;8.30;99.90;;;;;;8424210;28;19925;-71
2022/11/24 01:50:43;;;;;;;;;;;8.40;99.90;;;;;;8415496;28;20304;-70
2022/11/24 01:54:50;;;;;;;;;;;8.40;99.90;;;;;;8386881;28;20355;-70
2022/11/24 01:58:54;;;;;;;;;;;8.50;99.90;;;;;;8397828;28;19931;-70
2022/11/24 02:02:56;;;;;;;;;;;8.60;99.90;;;;;;8390397;28;20296;-70
2022/11/24 02:07:00;;;;;;;;;;;8.60;99.90;;;;;;8424473;28;19932;-70
2022/11/24 02:11:03;;;;;;;;;;;8.70;99.90;;;;;;8395342;28;19924;-70
2022/11/24 02:15:05;;;;;;;;;;;8.70;99.90;;;;;;8387504;28;19931;-70
2022/11/24 02:19:29;;;;;;;;;;;8.70;99.90;;;;;;8409084;28;20437;-70
2022/11/24 02:23:37;;;;;;;;;;;8.80;99.90;;;;;;8407154;28;19963;-70
2022/11/24 02:27:41;;;;;;;;;;;8.80;99.90;;;;;;8411117;28;19932;-70
2022/11/24 02:31:45;;;;;;;;;;;8.80;99.90;;;;;;8410756;28;19934;-70
2022/11/24 02:35:47;;;;;;;;;;;8.80;99.90;;;;;;8399319;28;19924;-70
2022/11/24 02:39:49;;;;;;;;;;;8.80;99.90;;;;;;8398697;28;20044;-70
2022/11/24 02:43:53;;;;;;;;;;;8.80;99.90;;;;;;8377167;28;20358;-70
2022/11/24 02:47:55;;;;;;;;;;;8.80;99.90;;;;;;8405049;28;20334;-70
2022/11/24 02:51:57;;;;;;;;;;;8.80;99.90;;;;;;8420972;28;19924;-70
2022/11/24 02:55:58;;;;;;;;;;;8.90;99.90;;;;;;8406954;28;19933;-70
2022/11/24 03:00:00;;;;;;;;;;;8.90;99.90;;;;;;8395267;28;20340;-70
2022/11/24 03:04:02;;;;;;;;;;;8.90;99.90;;;;;;8413762;28;19924;-70
2022/11/24 03:08:04;;;;;;;;;;;8.90;99.90;;;;;;8375378;28;20296;-70
2022/11/24 03:12:06;;;;;;;;;;;9.00;99.90;;;;;;8391263;28;19927;-70
2022/11/24 03:16:08;;;;;;;;;;;9.00;99.90;;;;;;8407716;28;20368;-70
2022/11/24 03:20:10;;;;;;;;;;;8.90;99.90;;;;;;8418329;28;19928;-70
2022/11/24 03:24:12;;;;;;;;;;;9.00;99.90;;;;;;8387918;28;19928;-70
2022/11/24 03:28:13;;;;;;;;;;;8.90;99.90;;;;;;8413345;28;19928;-70
2022/11/24 03:32:15;;;;;;;;;;;8.90;99.90;;;;;;8406173;28;20323;-70
2022/11/24 03:46:24;;;;;;;;;;;9.00;99.90;;;;;;8408694;28;19919;-71
2022/11/24 03:50:26;;;;;;;;;;;8.90;99.90;;;;;;8400647;28;19938;-70
2022/11/24 03:54:28;;;;;;;;;;;8.90;99.90;;;;;;8412521;28;19932;-70
2022/11/24 03:58:29;;;;;;;;;;;8.90;99.90;;;;;;8423671;28;19977;-70
2022/11/24 04:02:31;;;;;;;;;;;8.90;99.90;;;;;;8415495;28;20229;-70
2022/11/24 04:06:33;;;;;;;;;;;8.90;99.90;;;;;;8411580;28;19925;-70
2022/11/24 04:10:36;;;;;;;;;;;8.90;99.90;;;;;;8417146;28;19935;-70
2022/11/24 04:14:38;;;;;;;;;;;8.90;99.90;;;;;;8409737;28;19925;-70
2022/11/24 04:18:39;;;;;;;;;;;8.90;99.90;;;;;;8413897;28;19932;-70
2022/11/24 04:22:41;;;;;;;;;;;8.90;99.90;;;;;;8402366;28;19931;-70
2022/11/24 04:26:43;;;;;;;;;;;8.90;99.90;;;;;;8398695;28;19940;-70
2022/11/24 04:30:44;;;;;;;;;;;8.90;99.90;;;;;;8403373;28;19928;-70
2022/11/24 04:34:46;;;;;;;;;;;8.90;99.90;;;;;;8395131;28;20402;-70
2022/11/24 04:38:50;;;;;;;;;;;8.90;99.90;;;;;;8403046;28;19931;-70
2022/11/24 04:43:12;;;;;;;;;;;8.90;99.90;;;;;;8421015;28;19932;-70
2022/11/24 04:47:14;;;;;;;;;;;8.90;99.90;;;;;;8421756;28;19931;-70
2022/11/24 04:51:16;;;;;;;;;;;8.90;99.90;;;;;;8417783;28;20389;-71
2022/11/24 04:55:18;;;;;;;;;;;8.90;99.90;;;;;;8416826;28;19925;-70
2022/11/24 04:59:19;;;;;;;;;;;8.90;99.90;;;;;;8405312;28;19962;-71
2022/11/24 05:03:21;;;;;;;;;;;8.80;99.90;;;;;;8406906;28;19931;-70
2022/11/24 05:12:30;;;;;;;;;;;8.70;99.90;;;;;;8407930;28;19938;-71
2022/11/24 05:16:31;;;;;;;;;;;8.60;99.90;;;;;;8411525;28;20417;-70
2022/11/24 05:20:34;;;;;;;;;;;8.60;99.90;;;;;;8416183;28;19931;-70
2022/11/24 05:24:35;;;;;;;;;;;8.50;99.90;;;;;;8405487;28;20350;-70
2022/11/24 05:28:37;;;;;;;;;;;8.50;99.90;;;;;;8393459;28;19928;-70
2022/11/24 05:32:39;;;;;;;;;;;8.40;99.90;;;;;;8395617;28;19924;-70
2022/11/24 05:36:53;;;;;;;;;;;8.40;99.90;;;;;;8418554;28;19954;-70
2022/11/24 05:40:58;;;;;;;;;;;8.30;99.90;;;;;;8422766;28;20279;-70
2022/11/24 05:45:00;;;;;;;;;;;8.30;99.90;;;;;;8427248;28;20002;-70
2022/11/24 05:49:02;;;;;;;;;;;8.30;99.90;;;;;;8417877;28;19923;-70
2022/11/24 05:53:05;;;;;;;;;;;8.30;99.90;;;;;;8417449;28;19928;-70
2022/11/24 05:57:07;;;;;;;;;;;8.30;99.90;;;;;;8406158;28;19928;-70
2022/11/24 06:01:08;;;;;;;;;;;8.30;99.90;;;;;;8382658;28;20380;-70
2022/11/24 06:05:10;;;;;;;;;;;8.30;99.90;;;;;;8398847;28;20668;-70
2022/11/24 06:09:11;;;;;;;;;;;8.40;99.90;;;;;;8406969;28;20310;-70
2022/11/24 06:13:13;;;;;;;;;;;8.40;99.90;;;;;;8403489;28;19932;-70
2022/11/24 06:17:15;;;;;;;;;;;8.40;99.90;;;;;;8410039;28;20244;-70
2022/11/24 06:21:16;;;;;;;;;;;8.40;99.90;;;;;;8393292;28;19924;-71
2022/11/24 06:25:18;;;;;;;;;;;8.40;99.90;;;;;;8395965;28;20014;-70
2022/11/24 06:29:19;;;;;;;;;;;8.40;99.90;;;;;;8404181;28;19924;-70
2022/11/24 06:33:21;;;;;;;;;;;8.40;99.90;;;;;;8398828;28;19924;-70
2022/11/24 06:37:23;;;;;;;;;;;8.30;99.90;;;;;;8412312;28;19924;-70
2022/11/24 06:41:24;;;;;;;;;;;8.30;99.90;;;;;;8415604;28;19963;-70
2022/11/24 06:45:26;;;;;;;;;;;8.20;99.90;;;;;;8414753;28;19930;-70
2022/11/24 06:49:28;;;;;;;;;;;8.20;99.90;;;;;;8420807;28;19981;-70
2022/11/24 06:53:30;;;;;;;;;;;8.20;99.90;;;;;;8411575;28;19978;-71
2022/11/24 06:57:32;;;;;;;;;;;8.20;99.90;;;;;;8410699;28;19934;-70
2022/11/24 07:01:34;;;;;;;;;;;8.20;99.90;;;;;;8412680;28;20418;-71
2022/11/24 07:05:35;;;;;;;;;;;8.20;99.90;;;;;;8399982;28;19930;-71
2022/11/24 07:09:37;;;;;;;;;;;8.20;99.90;;;;;;8418321;28;19935;-70
2022/11/24 07:13:39;;;;;;;;;;;8.20;99.90;;;;;;8413158;28;19939;-70
2022/11/24 07:17:40;;;;;;;;;;;8.20;99.90;;;;;;8402374;28;19977;-70
2022/11/24 07:21:42;;;;;;;;;;;8.20;99.90;;;;;;8413002;28;19924;-70
2022/11/24 07:25:44;;;;;;;;;;;8.20;99.90;;;;;;8414480;28;19942;-70
2022/11/24 07:29:45;;;;;;;;;;;8.20;99.90;;;;;;8419960;28;19938;-70
2022/11/24 07:33:51;;;;;;;;;;;8.20;99.90;;;;;;8425511;28;19947;-70
2022/11/24 07:37:53;;;;;;;;;;;8.20;99.90;;;;;;8423611;28;20286;-70
2022/11/24 07:41:56;;;;;;;;;;;8.20;99.90;;;;;;8417503;28;19931;-71
2022/11/24 07:45:58;;;;;;;;;;;8.30;99.90;;;;;;8421091;28;20439;-70
2022/11/24 07:50:00;;;;;;;;;;;8.30;99.90;;;;;;8411723;28;19969;-70
2022/11/24 07:54:01;;;;;;;;;;;8.20;99.90;;;;;;8421369;28;19971;-71
2022/11/24 07:58:03;;;;;;;;;;;8.20;99.90;;;;;;8416461;28;19983;-71
2022/11/24 08:02:05;;;;;;;;;;;8.20;99.90;;;;;;8407902;28;20007;-70
2022/11/24 08:06:07;;;;;;;;;;;8.20;99.90;;;;;;8421314;28;20291;-71
2022/11/24 08:10:24;;;;;;;;;;;8.20;99.90;;;;;;8429403;28;19924;-70
2022/11/24 08:14:26;;;;;;;;;;;8.20;99.90;;;;;;8419879;28;19981;-71
2022/11/24 08:18:27;;;;;;;;;;;8.20;99.90;;;;;;8423680;28;20370;-70
2022/11/24 08:22:29;;;;;;;;;;;8.20;99.90;;;;;;8433990;28;19967;-70
2022/11/24 08:26:31;;;;;;;;;;;8.20;99.90;;;;;;8403578;28;20297;-70
2022/11/24 08:30:32;;;;;;;;;;;8.20;99.90;;;;;;8429750;28;20336;-70
2022/11/24 08:34:34;;;;;;;;;;;8.20;99.90;;;;;;8400846;28;19928;-70
2022/11/24 08:38:36;;;;;;;;;;;8.20;99.90;;;;;;8401884;28;19969;-70
2022/11/24 08:42:38;;;;;;;;;;;8.30;99.90;;;;;;8402491;28;19979;-70
2022/11/24 08:46:40;;;;;;;;;;;8.30;99.90;;;;;;8394578;28;19931;-70
2022/11/24 08:50:42;;;;;;;;;;;8.40;99.90;;;;;;8433852;28;20038;-70
2022/11/24 08:54:43;;;;;;;;;;;8.60;99.90;;;;;;8401137;28;19928;-70
2022/11/24 08:58:45;;;;;;;;;;;8.80;99.90;;;;;;8407556;28;19935;-70
2022/11/24 09:02:57;;;;;;;;;;;8.90;99.90;;;;;;8411603;28;20344;-70
2022/11/24 09:06:58;;;;;;;;;;;8.90;99.90;;;;;;8406685;28;20295;-70
2022/11/24 09:11:01;;;;;;;;;;;9.00;99.90;;;;;;8403034;28;19925;-70
2022/11/24 09:15:02;;;;;;;;;;;9.10;99.90;;;;;;8421487;28;20271;-70
2022/11/24 09:19:06;;;;;;;;;;;9.20;99.90;;;;;;8407279;28;19931;-71
2022/11/24 09:23:08;;;;;;;;;;;9.20;99.90;;;;;;8418621;28;19971;-70
2022/11/24 09:27:09;;;;;;;;;;;9.30;99.90;;;;;;8420313;28;19931;-70
2022/11/24 09:31:12;;;;;;;;;;;9.30;99.90;;;;;;8420915;28;19959;-70
2022/11/24 09:35:14;;;;;;;;;;;9.40;99.90;;;;;;8413332;28;19945;-70
2022/11/24 09:39:15;;;;;;;;;;;9.40;99.90;;;;;;8397694;28;20153;-70
2022/11/24 09:43:17;;;;;;;;;;;9.50;99.90;;;;;;8411039;28;19928;-70
2022/11/24 09:47:37;;;;;;;;;;;9.60;99.90;;;;;;8415897;28;19929;-70
2022/11/24 09:51:40;;;;;;;;;;;9.70;99.90;;;;;;8408034;28;19924;-70
2022/11/24 09:55:47;;;;;;;;;;;9.80;99.90;;;;;;8406923;28;19928;-70
2022/11/24 09:59:49;;;;;;;;;;;9.90;99.90;;;;;;8405254;28;20516;-70
2022/11/24 10:03:51;;;;;;;;;;;10.00;99.90;;;;;;8421649;28;20368;-70
2022/11/24 10:08:01;;;;;;;;;;;10.00;99.90;;;;;;8408873;28;20030;-70
2022/11/24 10:12:14;;;;;;;;;;;10.10;99.90;;;;;;8424030;28;19931;-71
2022/11/24 10:16:16;;;;;;;;;;;10.20;99.90;;;;;;8407997;28;20388;-70
2022/11/24 10:20:26;;;;;;;;;;;10.30;99.90;;;;;;8415654;28;20058;-70
2022/11/24 10:24:31;;;;;;;;;;;10.50;99.90;;;;;;8412735;28;19978;-70
2022/11/24 10:28:43;;;;;;;;;;;10.70;99.90;;;;;;8420159;28;20015;-71
2022/11/24 10:32:53;;;;;;;;;;;10.90;99.90;;;;;;8396924;28;19928;-70
2022/11/24 10:37:05;;;;;;;;;;;11.20;99.90;;;;;;8416299;28;19969;-70
2022/11/24 10:41:10;;;;;;;;;;;11.60;99.90;;;;;;8417317;28;19928;-70
2022/11/24 10:45:15;;;;;;;;;;;12.00;99.90;;;;;;8402452;28;19924;-70
2022/11/24 10:49:19;;;;;;;;;;;12.40;99.90;;;;;;8418185;28;19931;-70
2022/11/24 10:53:25;;;;;;;;;;;12.60;99.90;;;;;;8409731;28;20349;-70
2022/11/24 10:57:37;;;;;;;;;;;12.70;99.90;;;;;;8374528;28;19954;-71
2022/11/24 11:01:39;;;;;;;;;;;12.90;99.90;;;;;;8391599;28;19931;-70
2022/11/24 11:05:42;;;;;;;;;;;13.20;99.90;;;;;;8399277;28;19924;-70
2022/11/24 11:09:44;;;;;;;;;;;13.60;99.90;;;;;;8397195;28;19943;-70
2022/11/24 11:13:51;;;;;;;;;;;14.00;99.90;;;;;;8393751;28;19935;-70
2022/11/24 11:17:56;;;;;;;;;;;14.20;99.90;;;;;;8393100;28;19928;-71
2022/11/24 11:22:18;;;;;;;;;;;14.20;99.90;;;;;;8394837;28;19970;-70
2022/11/24 11:26:22;;;;;;;;;;;14.60;99.90;;;;;;8399201;28;19928;-71
2022/11/24 11:30:25;;;;;;;;;;;15.00;99.90;;;;;;8382897;28;19992;-71
2022/11/24 11:34:47;;;;;;;;;;;15.40;99.90;;;;;;8404721;28;19928;-71
2022/11/24 11:38:49;;;;;;;;;;;15.60;99.90;;;;;;8375286;28;19935;-71
2022/11/24 11:43:06;;;;;;;;;;;15.80;99.90;;;;;;8388093;28;19928;-71
2022/11/24 11:47:14;;;;;;;;;;;15.70;99.90;;;;;;8394655;28;20295;-71
2022/11/24 11:51:31;;;;;;;;;;;15.40;99.90;;;;;;8379146;28;20299;-70
2022/11/24 11:55:40;;;;;;;;;;;15.20;99.90;;;;;;8392626;28;19928;-71
2022/11/24 12:00:06;;;;;;;;;;;15.20;99.90;;;;;;8397348;28;20385;-70
2022/11/24 12:04:28;;;;;;;;;;;15.50;99.90;;;;;;8392582;28;20039;-70
2022/11/24 12:08:45;;;;;;;;;;;15.80;99.90;;;;;;8378083;28;19925;-70
2022/11/24 12:13:09;;;;;;;;;;;16.00;99.90;;;;;;8402017;28;20031;-71
2022/11/24 12:17:17;;;;;;;;;;;16.20;99.90;;;;;;8399334;28;19986;-70
2022/11/24 12:21:24;;;;;;;;;;;16.40;99.90;;;;;;8391987;28;20407;-71
2022/11/24 12:25:43;;;;;;;;;;;16.40;99.90;;;;;;8394488;28;20376;-70
2022/11/24 12:29:51;;;;;;;;;;;16.30;99.90;;;;;;8376278;28;20015;-70
2022/11/24 12:33:56;;;;;;;;;;;16.20;99.90;;;;;;8396016;28;19924;-70
2022/11/24 12:38:10;;;;;;;;;;;15.80;99.90;;;;;;8394215;28;19939;-70
2022/11/24 12:42:23;;;;;;;;;;;15.60;99.90;;;;;;8377332;28;20301;-70
2022/11/24 12:46:28;;;;;;;;;;;15.40;99.90;;;;;;8393468;28;20007;-70
2022/11/24 12:50:34;;;;;;;;;;;15.50;99.90;;;;;;8402054;28;19932;-70
2022/11/24 12:54:39;;;;;;;;;;;15.80;99.90;;;;;;8407894;28;20193;-71
2022/11/24 12:58:49;;;;;;;;;;;16.10;99.90;;;;;;8399021;28;19931;-70
2022/11/24 13:03:07;;;;;;;;;;;16.60;99.90;;;;;;8377944;28;20385;-71
2022/11/24 13:07:12;;;;;;;;;;;16.80;99.90;;;;;;8395576;28;20363;-71
2022/11/24 13:11:20;;;;;;;;;;;16.70;99.90;;;;;;8396055;28;19975;-71
2022/11/24 13:15:21;;;;;;;;;;;16.10;99.90;;;;;;8400844;28;20016;-70
2022/11/24 13:19:43;;;;;;;;;;;15.60;99.90;;;;;;8403258;28;20409;-71
2022/11/24 13:23:54;;;;;;;;;;;15.30;99.90;;;;;;8386381;28;19932;-71
2022/11/24 13:27:58;;;;;;;;;;;15.00;99.90;;;;;;8391320;28;20702;-71
2022/11/24 13:32:06;;;;;;;;;;;14.80;99.90;;;;;;8392120;28;20387;-71
2022/11/24 13:36:07;;;;;;;;;;;14.60;99.90;;;;;;8398653;28;19931;-71
2022/11/24 13:40:12;;;;;;;;;;;14.40;99.90;;;;;;8389734;28;19978;-71
2022/11/24 13:44:14;;;;;;;;;;;14.30;99.90;;;;;;8371501;28;19975;-71
2022/11/24 13:48:18;;;;;;;;;;;14.10;99.90;;;;;;8373587;28;20397;-71
2022/11/24 13:52:36;;;;;;;;;;;14.00;99.90;;;;;;8393437;28;20023;-71
2022/11/24 13:56:37;;;;;;;;;;;14.00;99.90;;;;;;8394445;28;20280;-71
2022/11/24 14:00:58;;;;;;;;;;;13.90;99.90;;;;;;8390688;28;20287;-71
2022/11/24 14:04:59;;;;;;;;;;;13.90;99.90;;;;;;8395148;28;19924;-71
2022/11/24 14:09:11;;;;;;;;;;;13.90;99.90;;;;;;8386987;28;19928;-71
2022/11/24 14:13:22;;;;;;;;;;;13.80;99.90;;;;;;8393779;28;20426;-71
2022/11/24 14:17:26;;;;;;;;;;;13.80;99.90;;;;;;8393023;28;19975;-70
2022/11/24 14:21:40;;;;;;;;;;;13.70;99.90;;;;;;8381101;28;20333;-71
2022/11/24 14:25:46;;;;;;;;;;;13.70;99.90;;;;;;8370345;28;19928;-71
2022/11/24 14:29:55;;;;;;;;;;;13.60;99.90;;;;;;8389980;28;19928;-71
2022/11/24 14:34:09;;;;;;;;;;;13.60;99.90;;;;;;8386559;28;19986;-71
2022/11/24 14:38:11;;;;;;;;;;;13.70;99.90;;;;;;8389682;28;19931;-70
2022/11/24 14:42:20;;;;;;;;;;;14.00;99.90;;;;;;8393487;28;19939;-71
2022/11/24 14:46:22;;;;;;;;;;;14.20;99.90;;;;;;8367630;28;20027;-71
2022/11/24 14:50:24;;;;;;;;;;;14.20;99.90;;;;;;8371239;28;19959;-71
2022/11/24 14:54:25;;;;;;;;;;;14.10;99.90;;;;;;8382982;28;20371;-70
2022/11/24 14:58:33;;;;;;;;;;;13.80;99.90;;;;;;8382470;28;19928;-71
2022/11/24 15:02:53;;;;;;;;;;;13.70;99.90;;;;;;8398569;28;19982;-71
2022/11/24 15:07:10;;;;;;;;;;;13.50;99.90;;;;;;8392054;28;19967;-70
2022/11/24 15:11:12;;;;;;;;;;;13.40;99.90;;;;;;8372864;28;19925;-70
2022/11/24 15:15:14;;;;;;;;;;;13.30;99.90;;;;;;8393169;28;19939;-70
2022/11/24 15:19:16;;;;;;;;;;;13.20;99.90;;;;;;8379669;28;20019;-71
2022/11/24 15:23:25;;;;;;;;;;;13.10;99.90;;;;;;8398002;28;19924;-70
2022/11/24 15:27:26;;;;;;;;;;;12.80;99.90;;;;;;8399586;28;20036;-71
2022/11/24 15:31:28;;;;;;;;;;;12.70;99.90;;;;;;8392667;28;19972;-71
2022/11/24 15:35:31;;;;;;;;;;;12.50;99.90;;;;;;8386429;28;19932;-70
2022/11/24 15:39:32;;;;;;;;;;;12.50;99.90;;;;;;8373406;28;19928;-71
2022/11/24 15:43:38;;;;;;;;;;;12.30;99.90;;;;;;8389690;28;19939;-70
2022/11/24 15:47:39;;;;;;;;;;;12.20;99.90;;;;;;8387113;28;19924;-71
2022/11/24 15:51:42;;;;;;;;;;;12.20;99.90;;;;;;8395525;28;19924;-71
2022/11/24 15:55:44;;;;;;;;;;;12.00;99.90;;;;;;8391472;28;19967;-70
2022/11/24 15:59:45;;;;;;;;;;;11.90;99.90;;;;;;8389893;28;19928;-71
2022/11/24 16:03:47;;;;;;;;;;;11.70;99.90;;;;;;8390549;28;20365;-70
2022/11/24 16:07:49;;;;;;;;;;;11.60;99.90;;;;;;8402715;28;19960;-71
2022/11/24 16:11:51;;;;;;;;;;;11.50;99.90;;;;;;8394027;28;19936;-71
2022/11/24 16:15:53;;;;;;;;;;;11.40;99.90;;;;;;8389159;28;19925;-71
2022/11/24 16:19:54;;;;;;;;;;;11.30;99.90;;;;;;8394887;28;19925;-70
2022/11/24 16:24:01;;;;;;;;;;;11.20;99.90;;;;;;8375757;28;19924;-71
2022/11/24 16:28:03;;;;;;;;;;;11.20;99.90;;;;;;8385609;28;19938;-70
2022/11/24 16:32:04;;;;;;;;;;;11.20;99.90;;;;;;8390451;28;19960;-71
2022/11/24 16:36:06;;;;;;;;;;;11.10;99.90;;;;;;8399886;28;19928;-71
2022/11/24 16:40:08;;;;;;;;;;;11.10;99.90;;;;;;8392191;28;19964;-71
2022/11/24 16:44:10;;;;;;;;;;;11.10;99.90;;;;;;8391378;28;19925;-71
2022/11/24 16:48:11;;;;;;;;;;;11.00;99.90;;;;;;8393282;28;20299;-71
2022/11/24 16:52:14;;;;;;;;;;;11.00;99.90;;;;;;8378549;28;20042;-71
2022/11/24 16:56:16;;;;;;;;;;;10.90;99.90;;;;;;8376317;28;19971;-71
2022/11/24 17:00:18;;;;;;;;;;;10.90;99.90;;;;;;8392179;28;19924;-71
2022/11/24 17:04:19;;;;;;;;;;;10.80;99.90;;;;;;8374388;28;19930;-70
2022/11/24 17:08:21;;;;;;;;;;;10.80;99.90;;;;;;8391915;28;19924;-71
2022/11/24 17:12:22;;;;;;;;;;;10.70;99.90;;;;;;8388322;28;20019;-71
2022/11/24 17:16:24;;;;;;;;;;;10.70;99.90;;;;;;8391470;28;19971;-70
2022/11/24 17:20:26;;;;;;;;;;;10.70;99.90;;;;;;8387931;28;19935;-71
2022/11/24 17:24:28;;;;;;;;;;;10.60;99.90;;;;;;8380321;28;20394;-70
2022/11/24 17:28:30;;;;;;;;;;;10.50;99.90;;;;;;8396074;28;20395;-70
2022/11/24 17:32:32;;;;;;;;;;;10.50;99.90;;;;;;8374853;28;19931;-71
2022/11/24 17:36:34;;;;;;;;;;;10.50;99.90;;;;;;8390611;28;20267;-71
2022/11/24 17:40:35;;;;;;;;;;;10.40;99.90;;;;;;8374630;28;19930;-70
2022/11/24 17:44:37;;;;;;;;;;;10.40;99.90;;;;;;8395172;28;20034;-70
2022/11/24 17:48:39;;;;;;;;;;;10.40;99.90;;;;;;8392128;28;19978;-71
2022/11/24 17:52:40;;;;;;;;;;;10.40;99.90;;;;;;8404451;28;19928;-71
2022/11/24 17:56:42;;;;;;;;;;;10.40;99.90;;;;;;8385463;28;19997;-71
2022/11/24 18:00:44;;;;;;;;;;;10.30;99.90;;;;;;8376760;28;19982;-70
2022/11/24 18:04:45;;;;;;;;;;;10.30;99.90;;;;;;8392464;28;20333;-71
2022/11/24 18:08:47;;;;;;;;;;;10.30;99.90;;;;;;8398972;28;20430;-71
2022/11/24 18:12:49;;;;;;;;;;;10.30;99.90;;;;;;8378047;28;19999;-71
2022/11/24 18:16:50;;;;;;;;;;;10.20;99.90;;;;;;8389411;28;19960;-71
2022/11/24 18:20:53;;;;;;;;;;;10.20;99.90;;;;;;8386446;28;19928;-71
2022/11/24 18:24:55;;;;;;;;;;;10.20;99.90;;;;;;8386143;28;19932;-71
2022/11/24 18:28:56;;;;;;;;;;;10.10;99.90;;;;;;8383571;28;19932;-71
2022/11/24 18:32:58;;;;;;;;;;;10.10;99.90;;;;;;8392418;28;19935;-71
2022/11/24 18:36:59;;;;;;;;;;;10.00;99.90;;;;;;8390752;28;19970;-71
2022/11/24 18:41:01;;;;;;;;;;;10.00;99.90;;;;;;8370786;28;20011;-71
2022/11/24 18:45:04;;;;;;;;;;;9.90;99.90;;;;;;8391052;28;19928;-70
2022/11/24 18:49:05;;;;;;;;;;;9.90;99.90;;;;;;8389810;28;19928;-71
2022/11/24 18:53:07;;;;;;;;;;;9.80;99.90;;;;;;8389723;28;20269;-71
2022/11/24 18:57:09;;;;;;;;;;;9.80;99.90;;;;;;8387259;28;19953;-71
2022/11/24 19:01:15;;;;;;;;;;;9.80;99.90;;;;;;8397420;28;19935;-71
2022/11/24 19:05:17;;;;;;;;;;;9.70;99.90;;;;;;8387565;28;20383;-71
2022/11/24 19:09:21;;;;;;;;;;;9.70;99.90;;;;;;8390775;28;19967;-70
2022/11/24 19:13:23;;;;;;;;;;;9.70;99.90;;;;;;8390286;28;19925;-71
2022/11/24 19:17:24;;;;;;;;;;;9.60;99.90;;;;;;8380096;28;20387;-71
2022/11/24 19:21:26;;;;;;;;;;;9.60;99.90;;;;;;8383004;28;19968;-70
2022/11/24 19:25:28;;;;;;;;;;;9.60;99.90;;;;;;8392190;28;19935;-71
2022/11/24 19:29:30;;;;;;;;;;;9.50;99.90;;;;;;8383844;28;19968;-70
2022/11/24 19:33:34;;;;;;;;;;;9.50;99.90;;;;;;8413051;28;19924;-70
2022/11/24 19:37:36;;;;;;;;;;;9.50;99.90;;;;;;8385553;28;19932;-71
2022/11/24 19:41:37;;;;;;;;;;;9.40;99.90;;;;;;8392393;28;19935;-71
2022/11/24 19:45:43;;;;;;;;;;;9.40;99.90;;;;;;8410663;28;19975;-71
2022/11/24 19:49:44;;;;;;;;;;;9.40;99.90;;;;;;8408333;28;20371;-71
2022/11/24 19:53:46;;;;;;;;;;;9.40;99.90;;;;;;8401747;28;19931;-71
2022/11/24 19:57:48;;;;;;;;;;;9.40;99.90;;;;;;8397285;28;20407;-70
2022/11/24 20:01:49;;;;;;;;;;;9.30;99.90;;;;;;8394992;28;20403;-71
2022/11/24 20:05:54;;;;;;;;;;;9.30;99.90;;;;;;8394400;28;19932;-71
2022/11/24 20:09:56;;;;;;;;;;;9.30;99.90;;;;;;8382521;28;19971;-71
2022/11/24 20:13:59;;;;;;;;;;;9.30;99.90;;;;;;8393022;28;19928;-71
2022/11/24 20:18:00;;;;;;;;;;;9.20;99.90;;;;;;8390278;28;20019;-71
2022/11/24 20:22:02;;;;;;;;;;;9.20;99.90;;;;;;8393899;28;20419;-70
2022/11/24 20:26:05;;;;;;;;;;;9.20;99.90;;;;;;8378045;28;19929;-71
2022/11/24 20:30:07;;;;;;;;;;;9.20;99.90;;;;;;8395503;28;19935;-71
2022/11/24 20:34:09;;;;;;;;;;;9.20;99.90;;;;;;8406103;28;19971;-70
2022/11/24 20:38:11;;;;;;;;;;;9.20;99.90;;;;;;8388072;28;19975;-71
2022/11/24 20:42:13;;;;;;;;;;;9.20;99.90;;;;;;8378997;28;19938;-70
2022/11/24 20:46:16;;;;;;;;;;;9.20;99.90;;;;;;8387553;28;19931;-70
2022/11/24 20:50:17;;;;;;;;;;;9.20;99.90;;;;;;8393928;28;19929;-71
2022/11/24 20:54:19;;;;;;;;;;;9.20;99.90;;;;;;8389182;28;20295;-71
2022/11/24 20:58:21;;;;;;;;;;;9.20;99.90;;;;;;8389956;28;20375;-71
2022/11/24 21:02:24;;;;;;;;;;;9.20;99.90;;;;;;8398515;28;19931;-70
2022/11/24 21:06:27;;;;;;;;;;;9.20;99.90;;;;;;8388183;28;20006;-71
2022/11/24 21:10:28;;;;;;;;;;;9.30;99.90;;;;;;8389532;28;20280;-71
2022/11/24 21:14:30;;;;;;;;;;;9.30;99.90;;;;;;8381009;28;19925;-70
2022/11/24 21:18:35;;;;;;;;;;;9.30;99.90;;;;;;8397340;28;20111;-71
2022/11/24 21:22:38;;;;;;;;;;;9.30;99.90;;;;;;8386216;28;20015;-70
2022/11/24 21:26:41;;;;;;;;;;;9.30;99.90;;;;;;8390349;28;22120;-71
2022/11/24 21:30:42;;;;;;;;;;;9.30;99.90;;;;;;8390519;28;19942;-72
2022/11/24 21:34:44;;;;;;;;;;;9.30;99.90;;;;;;8395766;28;20287;-70
2022/11/24 21:39:04;;;;;;;;;;;9.30;99.90;;;;;;8388970;28;19932;-71
2022/11/24 21:43:06;;;;;;;;;;;9.30;99.90;;;;;;8392338;28;19963;-71
2022/11/24 21:47:08;;;;;;;;;;;9.20;99.90;;;;;;8370637;28;19966;-71
2022/11/24 21:51:14;;;;;;;;;;;9.20;99.90;;;;;;8388093;28;19924;-70
2022/11/24 21:55:16;;;;;;;;;;;9.20;99.90;;;;;;8377300;28;19928;-71
2022/11/24 21:59:18;;;;;;;;;;;9.20;99.90;;;;;;8386882;28;19960;-71
2022/11/24 22:03:20;;;;;;;;;;;9.20;99.90;;;;;;8411743;28;19998;-71
2022/11/24 22:07:22;;;;;;;;;;;9.20;99.90;;;;;;8414753;28;19936;-71
2022/11/24 22:11:24;;;;;;;;;;;9.20;99.90;;;;;;8387817;28;19928;-71
2022/11/24 22:15:25;;;;;;;;;;;9.20;99.90;;;;;;8414764;28;19931;-71
2022/11/24 22:19:27;;;;;;;;;;;9.30;99.90;;;;;;8402773;28;19967;-71
2022/11/24 22:23:29;;;;;;;;;;;9.30;99.90;;;;;;8421855;28;20283;-71
2022/11/24 22:27:30;;;;;;;;;;;9.30;99.90;;;;;;8399354;28;19924;-71
2022/11/24 22:31:32;;;;;;;;;;;9.30;99.90;;;;;;8417832;28;19994;-71
2022/11/24 22:35:34;;;;;;;;;;;9.40;99.90;;;;;;8391446;28;19924;-71
2022/11/24 22:39:35;;;;;;;;;;;9.40;99.90;;;;;;8387137;28;19924;-71
2022/11/24 22:43:38;;;;;;;;;;;9.40;99.90;;;;;;8391315;28;19924;-70
2022/11/24 22:47:39;;;;;;;;;;;9.40;99.90;;;;;;8389425;28;19938;-70
2022/11/24 22:51:41;;;;;;;;;;;9.40;99.90;;;;;;8422565;28;19930;-70
2022/11/24 22:55:42;;;;;;;;;;;9.40;99.90;;;;;;8420164;28;19928;-71
2022/11/24 22:59:44;;;;;;;;;;;9.40;99.90;;;;;;8392422;28;20015;-70
2022/11/24 23:03:46;;;;;;;;;;;9.40;99.90;;;;;;8412895;28;19935;-71
2022/11/24 23:22:57;;;;;;;;;;;9.40;99.90;;;;;;8409240;28;20049;-71
2022/11/24 23:26:59;;;;;;;;;;;9.40;99.90;;;;;;8391996;28;19928;-71
2022/11/24 23:31:01;;;;;;;;;;;9.40;99.90;;;;;;8408848;28;19924;-71
2022/11/24 23:35:03;;;;;;;;;;;9.40;99.90;;;;;;8407036;28;19936;-70
2022/11/24 23:39:10;;;;;;;;;;;9.40;99.90;;;;;;8404747;28;19931;-71
2022/11/24 23:43:12;;;;;;;;;;;9.40;99.90;;;;;;8405002;28;19931;-71
2022/11/24 23:47:13;;;;;;;;;;;9.40;99.90;;;;;;8423243;28;19932;-71
2022/11/24 23:51:17;;;;;;;;;;;9.40;99.90;;;;;;8390479;28;19930;-71
2022/11/24 23:55:19;;;;;;;;;;;9.40;99.90;;;;;;8399659;28;19936;-71
2022/11/24 23:59:21;;;;;;;;;;;9.30;99.90;;;;;;8397902;28;19931;-70
